Terminal Aerodrome Forecast
Issued by NWS Cleveland, OH

Home | Current Version | Previous Version | Graphics & Text | Print | Product List | Glossary On
Versions: 1 2 3 4 5 6 7 8 9 10 11 12 13 14 15 16 17 18 19 20 21 22 23 24 25 26 27 28 29 30 31 32 33 34
000
FTUS41 KCLE 260200 AAA
TAFCLE
TAF AMD
KCLE 260253Z 2603/2706 16004KT P6SM BKN120
     FM261300 20008KT P6SM BKN100
     FM261900 22012KT P6SM BKN050 PROB30 2622/2624 3SM TSRA
      OVC025CB=

USA.gov is the U.S. government's official web portal to all federal, state and local government web resources and services.